This is the latest recevied weather packets stored in our database for station/object KF4CQ. If no packets are shown the sender has not sent any weather packets the latest 10 day(s).
| Time | Temp. | Humidity | Pressure | Rain* | Wind** | Luminosity | Snow |
|---|---|---|---|---|---|---|---|
| 1777572359 | 31.11° C | 56% | 1012 hPa | 0 mm | - | 165 W/m² | - |
| 1777572056 | 30.56° C | 56% | 1011.9 hPa | 0 mm | - | 902 W/m² | - |
| 1777571756 | 31.67° C | 54% | 1011.9 hPa | 0 mm | - | 844 W/m² | - |
| 1777571454 | 31.11° C | 54% | 1011.9 hPa | 0 mm | - | 879 W/m² | - |
| 1777571150 | 31.67° C | 54% | 1011.9 hPa | 0 mm | - | 851 W/m² | - |
| 1777570846 | 31.67° C | 53% | 1012 hPa | 0 mm | - | 829 W/m² | - |
| 1777570542 | 30.56° C | 55% | 1012.2 hPa | 0 mm | - | 835 W/m² | - |
| 1777570239 | 30.56° C | 56% | 1012.4 hPa | 0 mm | - | 822 W/m² | - |
| 1777569933 | 30° C | 56% | 1012.4 hPa | 0 mm | - | 925 W/m² | - |
| 1777569630 | 30.56° C | 56% | 1012.4 hPa | 0 mm | - | 183 W/m² | - |
| 1777569326 | 30.56° C | 56% | 1012.8 hPa | 0 mm | - | 235 W/m² | - |
| 1777569022 | 30.56° C | 54% | 1012.8 hPa | 0 mm | - | 861 W/m² | - |
| 1777568719 | 30.56° C | 52% | 1013 hPa | 0 mm | - | 858 W/m² | - |
| 1777568417 | 30.56° C | 53% | 1012.9 hPa | 0 mm | - | 797 W/m² | - |
| 1777568114 | 30.56° C | 53% | 1013.2 hPa | 0 mm | - | 817 W/m² | - |
| 1777567810 | 30.56° C | 54% | 1013.1 hPa | 0 mm | - | 794 W/m² | - |
| 1777567506 | 30° C | 57% | 1012.9 hPa | 0 mm | - | 791 W/m² | - |
| 1777567204 | 29.44° C | 60% | 1012.9 hPa | 0 mm | - | 850 W/m² | - |
| 1777566902 | 30.56° C | 58% | 1012.9 hPa | 0 mm | - | 763 W/m² | - |
| 1777566600 | 30.56° C | 55% | 1012.9 hPa | 0 mm | - | 797 W/m² | - |
| 1777566297 | 31.11° C | 57% | 1012.8 hPa | 0 mm | - | 803 W/m² | - |
| 1777565994 | 29.44° C | 61% | 1012.9 hPa | 0 mm | - | 872 W/m² | - |
| 1777565689 | 29.44° C | 64% | 1012.8 hPa | 0 mm | - | 295 W/m² | - |
| 1777565386 | 30° C | 63% | 1013.1 hPa | 0 mm | - | 319 W/m² | - |
| 1777565082 | 30° C | 62% | 1013 hPa | 0 mm | - | 791 W/m² | - |
* Rain latest hour (hover to see other rain measurements)
** Current wind speed in m/s (hover to see current wind gust speed)